createdAt,value
2023-05-14T00:00:36.024Z,42.8182
2023-05-14T00:01:37.762Z,42.7647
2023-05-14T00:02:39.547Z,42.7162
2023-05-14T00:03:41.451Z,42.7238
2023-05-14T00:04:42.980Z,42.7294
2023-05-14T00:05:44.704Z,42.7070
2023-05-14T00:06:46.459Z,42.6970
2023-05-14T00:07:48.157Z,42.7021
2023-05-14T00:08:49.906Z,42.6751
2023-05-14T00:09:51.659Z,42.6749
2023-05-14T00:10:53.385Z,42.6752
2023-05-14T00:11:55.097Z,42.7057
2023-05-14T00:12:56.835Z,42.6938
2023-05-14T00:13:58.567Z,42.6777
2023-05-14T00:15:00.321Z,42.6956
2023-05-14T00:16:02.064Z,42.7210
2023-05-14T00:17:03.763Z,42.7238
2023-05-14T00:18:05.532Z,42.7007
2023-05-14T00:19:07.378Z,42.6701
2023-05-14T00:20:09.077Z,42.6248
2023-05-14T00:21:10.807Z,42.6282
2023-05-14T00:22:12.519Z,42.6694
2023-05-14T00:23:14.253Z,42.6323
2023-05-14T00:24:15.989Z,42.6071
2023-05-14T00:25:17.715Z,42.5884
2023-05-14T00:26:19.456Z,42.5852
2023-05-14T00:27:21.190Z,42.5490
2023-05-14T00:28:22.933Z,42.5337
2023-05-14T00:29:24.673Z,42.5426
2023-05-14T00:30:26.407Z,42.5466
2023-05-14T00:31:28.135Z,42.5495
2023-05-14T00:32:29.911Z,42.5338
2023-05-14T00:33:31.605Z,42.5504
2023-05-14T00:34:33.333Z,42.5484
2023-05-14T00:35:35.077Z,42.5312
2023-05-14T00:36:36.787Z,42.5085
2023-05-14T00:37:38.512Z,42.5109
2023-05-14T00:38:40.251Z,42.5135
2023-05-14T00:39:42.004Z,42.4767
2023-05-14T00:40:43.738Z,42.4921
2023-05-14T00:41:45.464Z,42.5326
2023-05-14T00:42:47.190Z,42.5384
2023-05-14T00:43:48.913Z,42.5052
2023-05-14T00:44:50.665Z,42.4750
2023-05-14T00:45:52.402Z,42.5021
2023-05-14T00:46:54.198Z,42.5210
2023-05-14T00:47:55.849Z,42.5038
2023-05-14T00:48:57.570Z,42.4789
2023-05-14T00:49:59.318Z,42.4629
2023-05-14T00:51:01.058Z,42.4581
2023-05-14T00:52:02.784Z,42.4600
2023-05-14T00:53:04.497Z,42.4732
2023-05-14T00:54:06.244Z,42.5031
2023-05-14T00:55:07.985Z,42.5139
2023-05-14T00:56:09.743Z,42.5288
2023-05-14T00:57:11.466Z,42.5145
2023-05-14T00:58:13.169Z,42.5047
2023-05-14T00:59:14.891Z,42.5448
2023-05-14T01:00:16.691Z,42.6071
2023-05-14T01:01:18.414Z,42.6329
2023-05-14T01:02:20.142Z,42.6444
2023-05-14T01:03:21.872Z,42.5898
2023-05-14T01:04:23.547Z,42.5433
2023-05-14T01:05:25.276Z,42.5103
2023-05-14T01:06:27.039Z,42.4931
2023-05-14T01:07:28.765Z,42.4759
2023-05-14T01:08:30.491Z,42.4691
2023-05-14T01:09:32.207Z,42.4562
2023-05-14T01:10:33.943Z,42.4229
2023-05-14T01:11:35.685Z,42.4057
2023-05-14T01:12:37.427Z,42.4203
2023-05-14T01:13:39.159Z,42.4120
2023-05-14T01:14:40.873Z,42.3830
2023-05-14T01:15:42.602Z,42.3691
2023-05-14T01:16:44.361Z,42.3632
2023-05-14T01:17:46.118Z,42.3863
2023-05-14T01:18:47.878Z,42.3796
2023-05-14T01:19:49.531Z,42.3647
2023-05-14T01:20:51.267Z,42.3486
2023-05-14T01:21:53.012Z,42.3478
2023-05-14T01:22:54.772Z,42.3359
2023-05-14T01:23:56.488Z,42.3268
2023-05-14T01:24:58.227Z,42.3102
2023-05-14T01:25:59.937Z,42.3420
2023-05-14T01:27:01.684Z,42.3673
2023-05-14T01:28:03.397Z,42.3615
2023-05-14T01:29:05.164Z,42.3123
2023-05-14T01:30:06.886Z,42.2725
2023-05-14T01:31:08.605Z,42.2903
2023-05-14T01:32:10.433Z,42.3033
2023-05-14T01:33:12.070Z,42.2893
2023-05-14T01:34:13.820Z,42.2812
2023-05-14T01:35:15.563Z,42.2714
2023-05-14T01:36:17.265Z,42.2566
2023-05-14T01:37:19.008Z,42.2219
2023-05-14T01:38:20.755Z,42.2167
2023-05-14T01:39:22.465Z,42.1843
2023-05-14T01:40:24.395Z,42.1743
2023-05-14T01:41:25.926Z,42.1488
2023-05-14T01:42:27.680Z,42.1255
2023-05-14T01:43:29.510Z,42.0898
2023-05-14T01:44:31.136Z,42.1161
2023-05-14T01:45:32.845Z,42.1268
2023-05-14T01:46:34.579Z,42.1393
2023-05-14T01:47:36.364Z,42.1378
2023-05-14T01:48:38.059Z,42.1177
2023-05-14T01:49:39.786Z,42.1070
2023-05-14T01:50:41.502Z,42.0797
2023-05-14T01:51:43.242Z,42.0313
2023-05-14T01:52:45.004Z,42.0178
2023-05-14T01:53:46.692Z,42.0397
2023-05-14T01:54:48.435Z,42.0578
2023-05-14T01:55:50.160Z,42.0578
2023-05-14T01:56:51.907Z,42.0752
2023-05-14T01:57:53.643Z,42.0681
2023-05-14T01:58:55.369Z,42.0310
2023-05-14T01:59:57.080Z,42.0071
2023-05-14T02:00:58.888Z,41.9871
2023-05-14T02:02:00.742Z,41.9950
2023-05-14T02:03:02.359Z,41.9919
2023-05-14T02:04:04.104Z,41.9707
2023-05-14T02:05:06.913Z,42.0060
2023-05-14T02:07:27.112Z,41.9768
2023-05-14T02:08:28.754Z,42.0010
2023-05-14T02:09:30.486Z,42.0068
2023-05-14T02:12:26.325Z,41.9170
2023-05-14T02:13:28.043Z,41.9265
2023-05-14T02:14:29.773Z,41.9414
2023-05-14T02:15:31.531Z,41.9624
2023-05-14T02:16:33.257Z,41.9807
2023-05-14T02:17:35.037Z,41.9802
2023-05-14T02:18:36.759Z,41.9826
2023-05-14T02:19:38.480Z,41.9881
2023-05-14T02:20:40.188Z,41.9621
2023-05-14T02:21:41.939Z,41.9287
2023-05-14T02:22:43.655Z,41.8967
2023-05-14T02:23:45.387Z,41.9298
2023-05-14T02:24:47.132Z,41.9386
2023-05-14T02:25:48.855Z,41.9428
2023-05-14T02:26:50.621Z,41.9489
2023-05-14T02:27:52.355Z,41.9450
2023-05-14T02:28:54.072Z,41.9285
2023-05-14T02:29:55.805Z,41.9293
2023-05-14T02:34:11.282Z,41.9011
2023-05-14T02:35:13.001Z,41.9125
2023-05-14T02:36:14.761Z,41.8834
2023-05-14T02:37:16.468Z,41.8499
2023-05-14T02:38:18.259Z,41.8469
2023-05-14T02:39:19.947Z,41.8266
2023-05-14T02:40:21.871Z,41.8384
2023-05-14T02:41:23.418Z,41.8568
2023-05-14T02:42:25.173Z,41.8501
2023-05-14T02:43:26.898Z,41.8275
2023-05-14T02:44:28.651Z,41.8312
2023-05-14T02:45:30.393Z,41.8325
2023-05-14T02:46:32.314Z,41.7933
2023-05-14T02:47:36.030Z,41.7799
2023-05-14T02:48:35.571Z,41.7564
2023-05-14T02:49:37.328Z,41.7505
2023-05-14T02:50:39.064Z,41.7613
2023-05-14T02:51:40.774Z,41.7481
2023-05-14T02:52:42.503Z,41.7094
2023-05-14T02:53:44.239Z,41.7053
2023-05-14T02:54:46.004Z,41.7247
2023-05-14T02:55:47.758Z,41.7668
2023-05-14T02:56:49.443Z,41.7564
2023-05-14T02:57:51.185Z,41.7537
2023-05-14T02:58:52.922Z,41.7759
2023-05-14T02:59:54.670Z,41.7879
2023-05-14T03:00:56.486Z,41.7584
2023-05-14T03:01:58.199Z,41.7444
2023-05-14T03:02:59.876Z,41.7260
2023-05-14T03:04:01.592Z,41.7241
2023-05-14T03:05:03.323Z,41.7213
2023-05-14T03:06:05.085Z,41.7415
2023-05-14T03:07:06.818Z,41.7284
2023-05-14T03:08:08.529Z,41.6903
2023-05-14T03:09:10.269Z,41.7032
2023-05-14T03:10:11.993Z,41.6814
2023-05-14T03:11:13.763Z,41.6393
2023-05-14T03:12:15.486Z,41.6359
2023-05-14T03:13:17.221Z,41.6783
2023-05-14T03:14:18.972Z,41.7141
2023-05-14T03:15:20.672Z,41.7270
2023-05-14T03:16:22.442Z,41.7257
2023-05-14T03:17:24.217Z,41.7565
2023-05-14T03:18:25.969Z,41.7571
2023-05-14T03:19:27.619Z,41.7447
2023-05-14T03:20:29.331Z,41.7131
2023-05-14T03:21:31.072Z,41.7262
2023-05-14T03:22:32.829Z,41.7163
2023-05-14T03:23:34.585Z,41.6828
2023-05-14T03:24:36.301Z,41.6732
2023-05-14T03:25:38.027Z,41.6994
2023-05-14T03:26:39.756Z,41.7064
2023-05-14T03:27:41.514Z,41.7040
2023-05-14T03:28:43.259Z,41.7014
2023-05-14T03:29:44.958Z,41.6799
2023-05-14T03:30:46.764Z,41.6585
2023-05-14T03:31:48.445Z,41.6617
2023-05-14T03:32:50.235Z,41.6527
2023-05-14T03:33:51.934Z,41.6837
2023-05-14T03:34:53.645Z,41.6784
2023-05-14T03:35:55.385Z,41.6467
2023-05-14T03:36:57.133Z,41.6237
2023-05-14T03:37:58.877Z,41.6054
2023-05-14T03:39:00.620Z,41.5793
2023-05-14T03:40:02.358Z,41.5392
2023-05-14T03:41:04.060Z,41.4968
2023-05-14T03:42:05.796Z,41.4900
2023-05-14T03:43:07.543Z,41.5145
2023-05-14T03:44:09.294Z,41.5084
2023-05-14T03:45:11.037Z,41.4846
2023-05-14T03:46:12.740Z,41.4650
2023-05-14T03:47:14.472Z,41.4391
2023-05-14T03:48:16.298Z,41.4368
2023-05-14T03:49:17.983Z,41.4172
2023-05-14T03:50:19.697Z,41.4132
2023-05-14T03:51:21.434Z,41.4205
2023-05-14T03:52:23.151Z,41.4051
2023-05-14T03:53:24.885Z,41.4021
2023-05-14T03:54:26.638Z,41.4238
2023-05-14T03:55:28.375Z,41.4137
2023-05-14T03:56:30.095Z,41.4222
2023-05-14T03:57:31.847Z,41.4379
2023-05-14T03:58:33.586Z,41.4392
2023-05-14T03:59:35.315Z,41.4255
2023-05-14T04:00:37.032Z,41.4199
2023-05-14T04:01:38.791Z,41.4338
2023-05-14T04:02:40.561Z,41.4405
2023-05-14T04:03:42.368Z,41.4402
2023-05-14T04:04:44.000Z,41.4380
2023-05-14T04:05:45.725Z,41.4551
2023-05-14T04:06:47.455Z,41.4504
2023-05-14T04:07:49.221Z,41.4474
2023-05-14T04:08:50.908Z,41.4404
2023-05-14T04:09:52.662Z,41.4452
2023-05-14T04:10:54.424Z,41.4434
2023-05-14T04:11:56.125Z,41.4731
2023-05-14T04:12:57.876Z,41.4812
2023-05-14T04:13:59.577Z,41.4883
2023-05-14T04:15:01.330Z,41.4804
2023-05-14T04:16:03.060Z,41.4989
2023-05-14T04:17:04.814Z,41.5081
2023-05-14T04:18:06.629Z,41.4861
2023-05-14T04:19:08.322Z,41.4725
2023-05-14T04:20:09.991Z,41.4656
2023-05-14T04:21:11.727Z,41.4722
2023-05-14T04:22:13.465Z,41.4964
2023-05-14T04:23:15.214Z,41.5030
2023-05-14T04:24:16.950Z,41.5016
2023-05-14T04:25:18.667Z,41.4846
2023-05-14T04:26:20.430Z,41.4897
2023-05-14T04:27:22.138Z,41.4748
2023-05-14T04:28:23.895Z,41.4579
2023-05-14T04:29:25.634Z,41.4153
2023-05-14T04:30:27.382Z,41.4303
2023-05-14T04:31:29.130Z,41.4493
2023-05-14T04:32:30.818Z,41.4681
2023-05-14T04:33:32.569Z,41.4645
2023-05-14T04:34:34.296Z,41.4474
2023-05-14T04:35:36.067Z,41.4466
2023-05-14T04:36:37.751Z,41.4467
2023-05-14T04:37:39.472Z,41.4581
2023-05-14T04:38:41.226Z,41.4689
2023-05-14T04:39:42.963Z,41.4557
2023-05-14T04:40:44.698Z,41.4391
2023-05-14T04:41:46.429Z,41.4476
2023-05-14T04:42:48.169Z,41.4640
2023-05-14T04:43:49.892Z,41.4728
2023-05-14T04:44:51.599Z,41.4699
2023-05-14T04:45:53.363Z,41.4787
2023-05-14T04:46:55.096Z,41.4889
2023-05-14T04:47:56.859Z,41.4745
2023-05-14T04:48:58.574Z,41.4942
2023-05-14T04:50:00.396Z,41.4819
2023-05-14T04:51:02.025Z,41.4697
2023-05-14T04:52:03.767Z,41.5172
2023-05-14T04:53:05.508Z,41.5083
2023-05-14T04:54:07.238Z,41.5083
2023-05-14T04:55:08.960Z,41.5325
2023-05-14T04:56:10.696Z,41.5693
2023-05-14T04:57:12.425Z,41.5522
2023-05-14T04:58:14.139Z,41.5310
2023-05-14T04:59:15.872Z,41.5066
2023-05-14T05:00:17.610Z,41.4653
2023-05-14T05:01:19.420Z,41.4484
2023-05-14T05:02:21.092Z,41.4423
2023-05-14T05:03:22.967Z,41.4708
2023-05-14T05:04:24.540Z,41.5027
2023-05-14T05:05:26.288Z,41.5218
2023-05-14T05:06:28.050Z,41.4894
2023-05-14T05:07:29.781Z,41.4926
2023-05-14T05:08:31.501Z,41.4764
2023-05-14T05:09:33.217Z,41.4754
2023-05-14T05:10:34.998Z,41.5242
2023-05-14T05:11:36.706Z,41.5305
2023-05-14T05:12:38.466Z,41.4928
2023-05-14T05:13:40.157Z,41.5038
2023-05-14T05:14:41.889Z,41.5090
2023-05-14T05:15:43.659Z,41.5124
2023-05-14T05:16:45.382Z,41.5011
2023-05-14T05:17:47.180Z,41.5468
2023-05-14T05:18:48.879Z,41.5600
2023-05-14T05:19:50.582Z,41.5738
2023-05-14T05:20:52.297Z,41.5755
2023-05-14T05:21:54.053Z,41.5789
2023-05-14T05:22:55.791Z,41.5980
2023-05-14T05:23:57.514Z,41.6191
2023-05-14T05:24:59.240Z,41.6373
2023-05-14T05:26:00.989Z,41.6529
2023-05-14T05:27:02.742Z,41.6552
2023-05-14T05:28:04.460Z,41.6612
2023-05-14T05:29:06.213Z,41.6667
2023-05-14T05:30:07.917Z,41.6720
2023-05-14T05:31:09.662Z,41.7198
2023-05-14T05:32:11.393Z,41.7273
2023-05-14T05:33:13.131Z,41.7048
2023-05-14T05:34:14.863Z,41.7064
2023-05-14T05:35:16.581Z,41.7042
2023-05-14T05:36:18.320Z,41.7141
2023-05-14T05:37:20.049Z,41.7471
2023-05-14T05:38:21.799Z,41.7648
2023-05-14T05:39:23.546Z,41.7528
2023-05-14T05:40:25.661Z,41.7597
2023-05-14T05:41:26.972Z,41.7632
2023-05-14T05:42:28.721Z,41.7861
2023-05-14T05:43:30.437Z,41.8244
2023-05-14T05:44:32.197Z,41.8288
2023-05-14T05:45:33.922Z,41.8461
2023-05-14T05:46:35.675Z,41.8449
2023-05-14T05:47:37.468Z,41.8842
2023-05-14T05:48:39.109Z,41.8887
2023-05-14T05:49:40.870Z,41.8905
2023-05-14T05:50:42.591Z,41.8927
2023-05-14T05:51:44.326Z,41.8790
2023-05-14T05:52:46.036Z,41.8757
2023-05-14T05:53:47.842Z,41.8503
2023-05-14T05:54:49.524Z,41.8203
2023-05-14T05:55:51.237Z,41.8304
2023-05-14T05:56:52.980Z,41.8587
2023-05-14T05:57:54.714Z,41.8855
2023-05-14T05:58:56.470Z,41.8799
2023-05-14T05:59:58.196Z,41.8892
2023-05-14T06:00:59.913Z,41.9265
2023-05-14T06:02:01.667Z,41.9232
2023-05-14T06:03:03.416Z,41.9393
2023-05-14T06:04:05.115Z,41.9625
2023-05-14T06:05:06.874Z,41.9815
2023-05-14T06:06:08.622Z,42.0251
2023-05-14T06:07:10.292Z,42.0833
2023-05-14T06:08:12.046Z,42.1292
2023-05-14T06:09:13.764Z,42.1546
2023-05-14T06:10:15.537Z,42.1769
2023-05-14T06:11:17.282Z,42.1835
2023-05-14T06:12:18.967Z,42.1929
2023-05-14T06:13:20.707Z,42.1973
2023-05-14T06:14:22.432Z,42.2039
2023-05-14T06:15:24.199Z,42.2307
2023-05-14T06:16:25.931Z,42.2899
2023-05-14T06:17:27.733Z,42.3519
2023-05-14T06:18:29.411Z,42.3162
2023-05-14T06:19:31.097Z,42.2977
2023-05-14T06:20:32.856Z,42.3289
2023-05-14T06:21:34.586Z,42.3778
2023-05-14T06:22:36.329Z,42.3943
2023-05-14T06:23:38.044Z,42.4024
2023-05-14T06:24:39.767Z,42.4428
2023-05-14T06:25:41.487Z,42.4788
2023-05-14T06:26:43.231Z,42.5319
2023-05-14T06:27:44.974Z,42.5282
2023-05-14T06:28:46.697Z,42.5054
2023-05-14T06:29:48.416Z,42.4984
2023-05-14T06:30:50.148Z,42.5128
2023-05-14T06:31:51.900Z,42.5421
2023-05-14T06:32:53.654Z,42.5520
2023-05-14T06:33:55.343Z,42.5309
2023-05-14T06:34:57.094Z,42.5338
2023-05-14T06:35:58.932Z,42.5464
2023-05-14T06:37:00.654Z,42.5773
2023-05-14T06:38:02.366Z,42.5975
2023-05-14T06:39:04.103Z,42.6065
2023-05-14T06:40:05.836Z,42.6194
2023-05-14T06:41:07.580Z,42.6474
2023-05-14T06:42:09.325Z,42.6658
2023-05-14T06:43:11.019Z,42.6869
2023-05-14T06:44:12.751Z,42.6916
2023-05-14T06:45:14.478Z,42.7181
2023-05-14T06:46:16.263Z,42.7673
2023-05-14T06:47:17.989Z,42.7882
2023-05-14T06:48:19.773Z,42.8552
2023-05-14T06:49:21.403Z,42.9091
2023-05-14T06:50:23.290Z,42.9422
2023-05-14T06:51:24.887Z,42.9722
2023-05-14T06:52:26.619Z,43.0108
2023-05-14T06:53:28.370Z,43.0539
2023-05-14T06:54:30.102Z,43.0712
2023-05-14T06:55:31.835Z,43.0766
2023-05-14T06:56:33.572Z,43.1062
2023-05-14T06:57:35.303Z,43.1488
2023-05-14T06:58:37.022Z,43.2000
2023-05-14T06:59:38.732Z,43.2393
2023-05-14T07:00:40.500Z,43.2630
2023-05-14T07:01:42.250Z,43.3021
2023-05-14T07:02:44.011Z,43.3168
2023-05-14T07:03:45.702Z,43.3785
2023-05-14T07:04:47.452Z,43.4529
2023-05-14T07:05:49.134Z,43.5139
2023-05-14T07:06:50.870Z,43.5764
2023-05-14T07:07:52.605Z,43.6079
2023-05-14T07:08:54.366Z,43.6454
2023-05-14T07:09:56.100Z,43.6697
2023-05-14T07:10:57.819Z,43.7160
2023-05-14T07:11:59.538Z,43.7624
2023-05-14T07:13:01.277Z,43.7595
2023-05-14T07:14:02.999Z,43.7900
2023-05-14T07:15:04.759Z,43.8135
2023-05-14T07:16:06.476Z,43.8836
2023-05-14T07:17:08.260Z,43.9600
2023-05-14T07:18:09.934Z,43.9640
2023-05-14T07:19:11.725Z,43.9706
2023-05-14T07:20:13.412Z,43.9904
2023-05-14T07:21:15.128Z,44.0239
2023-05-14T07:22:16.876Z,44.0700
2023-05-14T07:23:19.774Z,44.1407
2023-05-14T07:24:20.316Z,44.1997
2023-05-14T07:25:22.062Z,44.2422
2023-05-14T07:26:23.799Z,44.2513
2023-05-14T07:27:25.531Z,44.2205
2023-05-14T07:28:27.243Z,44.3088
2023-05-14T07:29:28.986Z,44.4232
2023-05-14T07:30:30.718Z,44.4833
2023-05-14T07:31:32.485Z,44.5221
2023-05-14T07:32:34.191Z,44.5610
2023-05-14T07:33:35.923Z,44.5870
2023-05-14T07:34:37.644Z,44.6080
2023-05-14T07:35:39.378Z,44.6602
2023-05-14T07:36:41.083Z,44.6897
2023-05-14T07:37:42.845Z,44.7409
2023-05-14T07:38:44.550Z,44.7675
2023-05-14T07:39:46.293Z,44.7912
2023-05-14T07:40:48.028Z,44.8828
2023-05-14T07:41:49.732Z,44.9722
2023-05-14T07:42:51.472Z,45.0237
2023-05-14T07:43:53.216Z,45.0782
2023-05-14T07:44:54.950Z,45.1109
2023-05-14T07:45:56.688Z,45.1737
2023-05-14T07:46:58.442Z,45.1767
2023-05-14T07:48:00.317Z,45.1853
2023-05-14T07:49:01.856Z,45.2352
2023-05-14T07:50:03.596Z,45.2969
2023-05-14T07:51:05.352Z,45.3417
2023-05-14T07:52:07.067Z,45.3925
2023-05-14T07:53:08.776Z,45.3654
2023-05-14T07:54:10.512Z,45.4201
2023-05-14T07:55:12.247Z,45.4675
2023-05-14T07:56:14.006Z,45.4813
2023-05-14T07:57:15.730Z,45.5010
2023-05-14T07:58:17.435Z,45.5394
2023-05-14T07:59:19.178Z,45.5782
2023-05-14T08:00:20.970Z,45.5658
2023-05-14T08:01:22.657Z,45.5480
2023-05-14T08:02:24.505Z,45.5530
2023-05-14T08:03:26.205Z,45.6051
2023-05-14T08:04:27.895Z,45.6292
2023-05-14T08:05:29.583Z,45.6496
2023-05-14T08:06:31.289Z,45.6450
2023-05-14T08:07:33.038Z,45.6502
2023-05-14T08:08:34.773Z,45.6523
2023-05-14T08:09:36.481Z,45.6793
2023-05-14T08:10:38.235Z,45.6918
2023-05-14T08:11:39.961Z,45.6747
2023-05-14T08:12:41.676Z,45.6774
2023-05-14T08:13:43.434Z,45.6628
2023-05-14T08:14:45.138Z,45.6273
2023-05-14T08:15:46.884Z,45.5735
2023-05-14T08:16:48.670Z,45.5761
2023-05-14T08:17:50.371Z,45.5887
2023-05-14T08:18:52.078Z,45.5713
2023-05-14T08:19:53.773Z,45.5469
2023-05-14T08:20:55.535Z,45.5206
2023-05-14T08:21:57.256Z,45.5087
2023-05-14T08:22:58.996Z,45.5401
2023-05-14T08:24:00.707Z,45.5996
2023-05-14T08:25:02.462Z,45.5997
2023-05-14T08:26:04.200Z,45.6166
2023-05-14T08:27:05.889Z,45.6535
2023-05-14T08:28:07.653Z,45.6572
2023-05-14T08:29:10.765Z,45.6603
2023-05-14T08:30:11.105Z,45.6849
2023-05-14T08:31:12.861Z,45.6655
2023-05-14T08:32:22.766Z,45.6546
2023-05-14T08:33:16.274Z,45.6585
2023-05-14T08:34:18.029Z,45.6807
2023-05-14T08:35:19.763Z,45.6708
2023-05-14T08:36:21.499Z,45.6230
2023-05-14T08:37:23.208Z,45.5934
2023-05-14T08:38:24.927Z,45.5914
2023-05-14T08:39:26.654Z,45.6195
2023-05-14T08:40:28.414Z,45.6019
2023-05-14T08:41:30.136Z,45.5550
2023-05-14T08:42:31.848Z,45.5129
2023-05-14T08:43:33.573Z,45.4978
2023-05-14T08:44:35.353Z,45.5258
2023-05-14T08:45:37.054Z,45.5070
2023-05-14T08:46:38.793Z,45.5577
2023-05-14T08:47:40.547Z,45.5806
2023-05-14T08:48:42.241Z,45.5539
2023-05-14T08:49:43.960Z,45.6111
2023-05-14T08:50:45.709Z,45.6277
2023-05-14T08:51:47.447Z,45.6263
2023-05-14T08:52:49.160Z,45.6492
2023-05-14T08:53:50.875Z,45.6332
2023-05-14T08:54:52.611Z,45.6110
2023-05-14T08:55:54.332Z,45.5962
2023-05-14T08:56:56.079Z,45.5621
2023-05-14T08:57:57.810Z,45.5479
2023-05-14T08:58:59.505Z,45.5146
2023-05-14T09:00:01.290Z,45.4773
2023-05-14T09:01:02.968Z,45.4837
2023-05-14T09:02:04.810Z,45.4861
2023-05-14T09:03:06.487Z,45.4885
2023-05-14T09:04:08.157Z,45.5180
2023-05-14T09:05:09.898Z,45.5341
2023-05-14T09:06:11.598Z,45.5224
2023-05-14T09:07:13.351Z,45.5087
2023-05-14T09:08:15.073Z,45.5199
2023-05-14T09:09:16.819Z,45.5312
2023-05-14T09:10:18.526Z,45.5037
2023-05-14T09:11:20.241Z,45.4790
2023-05-14T09:12:22.011Z,45.5019
2023-05-14T09:13:24.140Z,45.5134
2023-05-14T09:14:25.449Z,45.5626
2023-05-14T09:15:27.161Z,45.5847
2023-05-14T09:16:28.941Z,45.5961
2023-05-14T09:17:30.671Z,45.6161
2023-05-14T09:18:32.397Z,45.6453
2023-05-14T09:19:34.110Z,45.6750
2023-05-14T09:20:35.805Z,45.7075
2023-05-14T09:21:37.518Z,45.6975
2023-05-14T09:22:39.264Z,45.6504
2023-05-14T09:23:41.004Z,45.6533
2023-05-14T09:24:42.730Z,45.6193
2023-05-14T09:25:44.460Z,45.5293
2023-05-14T09:26:46.188Z,45.5089
2023-05-14T09:27:47.913Z,45.5018
2023-05-14T09:28:49.635Z,45.4830
2023-05-14T09:29:51.341Z,45.4973
2023-05-14T09:30:53.082Z,45.5213
2023-05-14T09:31:54.898Z,45.5168
2023-05-14T09:32:56.615Z,45.4252
2023-05-14T09:33:58.292Z,45.3800
2023-05-14T09:34:59.992Z,45.3999
2023-05-14T09:36:01.723Z,45.3901
2023-05-14T09:37:03.475Z,45.3526
2023-05-14T09:38:05.190Z,45.3248
2023-05-14T09:39:06.921Z,45.3182
2023-05-14T09:40:08.637Z,45.3197
2023-05-14T09:41:10.358Z,45.3122
2023-05-14T09:42:12.099Z,45.3069
2023-05-14T09:43:13.820Z,45.2977
2023-05-14T09:44:15.545Z,45.2959
2023-05-14T09:45:17.271Z,45.3152
2023-05-14T09:46:18.990Z,45.3561
2023-05-14T09:47:20.799Z,45.3559
2023-05-14T09:48:22.579Z,45.3389
2023-05-14T09:49:24.180Z,45.3649
2023-05-14T09:50:26.153Z,45.3938
2023-05-14T09:51:27.640Z,45.4049
2023-05-14T09:52:29.360Z,45.4324
2023-05-14T09:53:31.087Z,45.4309
2023-05-14T09:54:32.815Z,45.3889
2023-05-14T09:55:34.519Z,45.4349
2023-05-14T09:56:36.286Z,45.4772
2023-05-14T09:57:38.002Z,45.5267
2023-05-14T09:58:39.709Z,45.5796
2023-05-14T09:59:41.431Z,45.6382
2023-05-14T10:00:43.189Z,45.7088
2023-05-14T10:01:44.983Z,45.8087
2023-05-14T10:02:46.699Z,45.9100
2023-05-14T10:03:48.369Z,45.9827
2023-05-14T10:04:50.325Z,45.9784
2023-05-14T10:05:51.820Z,45.9724
2023-05-14T10:06:53.546Z,46.0072
2023-05-14T10:07:55.289Z,46.0031
2023-05-14T10:08:57.003Z,46.0351
2023-05-14T10:09:59.546Z,46.0641
2023-05-14T10:11:00.472Z,46.1354
2023-05-14T10:12:02.214Z,46.1078
2023-05-14T10:13:03.899Z,46.1125
2023-05-14T10:14:05.639Z,46.1139
2023-05-14T10:15:07.386Z,46.1120
2023-05-14T10:16:09.121Z,46.1085
2023-05-14T10:17:10.950Z,46.1087
2023-05-14T10:18:12.607Z,46.0556
2023-05-14T10:19:14.305Z,46.0192
2023-05-14T10:20:16.054Z,46.0135
2023-05-14T10:21:17.764Z,45.9977
2023-05-14T10:22:19.494Z,45.9454
2023-05-14T10:23:21.226Z,45.9719
2023-05-14T10:24:22.927Z,45.9579
2023-05-14T10:25:24.669Z,45.9099
2023-05-14T10:26:26.431Z,45.8909
2023-05-14T10:27:28.140Z,45.8716
2023-05-14T10:28:29.861Z,45.8160
2023-05-14T10:29:31.571Z,45.8101
2023-05-14T10:30:33.304Z,45.8166
2023-05-14T10:31:35.094Z,45.8356
2023-05-14T10:32:36.829Z,45.8526
2023-05-14T10:33:38.513Z,45.8250
2023-05-14T10:34:40.235Z,45.7948
2023-05-14T10:35:41.943Z,45.8123
2023-05-14T10:36:43.673Z,45.8460
2023-05-14T10:37:45.429Z,45.8484
2023-05-14T10:38:47.159Z,45.8257
2023-05-14T10:39:48.978Z,45.7917
2023-05-14T10:40:52.824Z,45.7527
2023-05-14T10:41:52.418Z,45.7507
2023-05-14T10:42:54.136Z,45.7489
2023-05-14T10:43:55.897Z,45.7268
2023-05-14T10:44:57.623Z,45.6842
2023-05-14T10:45:59.331Z,45.6522
2023-05-14T10:47:01.070Z,45.6023
2023-05-14T10:48:02.788Z,45.5785
2023-05-14T10:49:04.536Z,45.5159
2023-05-14T10:50:06.266Z,45.4532
2023-05-14T10:51:08.043Z,45.4305
2023-05-14T10:52:09.691Z,45.3956
2023-05-14T10:53:11.422Z,45.3630
2023-05-14T10:54:13.168Z,45.3225
2023-05-14T10:55:14.926Z,45.2996
2023-05-14T10:56:16.632Z,45.3094
2023-05-14T10:57:18.370Z,45.2923
2023-05-14T10:58:20.068Z,45.3064
2023-05-14T10:59:21.820Z,45.3050
2023-05-14T11:00:23.746Z,45.2803
2023-05-14T11:01:25.328Z,45.2437
2023-05-14T11:02:27.043Z,45.2100
2023-05-14T11:03:28.765Z,45.2036
2023-05-14T11:04:30.456Z,45.2382
2023-05-14T11:05:32.203Z,45.2633
2023-05-14T11:06:33.930Z,45.3149
2023-05-14T11:07:35.674Z,45.3135
2023-05-14T11:08:37.395Z,45.2775
2023-05-14T11:09:39.106Z,45.2008
2023-05-14T11:10:40.826Z,45.1419
2023-05-14T11:11:42.604Z,45.0987
2023-05-14T11:12:44.323Z,45.0548
2023-05-14T11:13:46.051Z,45.0346
2023-05-14T11:14:47.783Z,45.0865
2023-05-14T11:15:49.503Z,45.1611
2023-05-14T11:16:51.233Z,45.3148
2023-05-14T11:17:52.954Z,45.3857
2023-05-14T11:18:54.739Z,45.4111
2023-05-14T11:19:56.412Z,45.4471
2023-05-14T11:20:58.146Z,45.4894
2023-05-14T11:21:59.850Z,45.4973
2023-05-14T11:23:01.577Z,45.4709
2023-05-14T11:24:03.303Z,45.4237
2023-05-14T11:25:05.052Z,45.4032
2023-05-14T11:26:06.841Z,45.3994
2023-05-14T11:27:08.497Z,45.4108
2023-05-14T11:28:10.248Z,45.4130
2023-05-14T11:29:11.961Z,45.3771
2023-05-14T11:30:13.689Z,45.3479
2023-05-14T11:31:15.444Z,45.3481
2023-05-14T11:32:17.169Z,45.3423
2023-05-14T11:33:18.954Z,45.3023
2023-05-14T11:34:20.627Z,45.3193
2023-05-14T11:35:22.355Z,45.3630
2023-05-14T11:36:24.061Z,45.3469
2023-05-14T11:37:25.793Z,45.3277
2023-05-14T11:38:27.527Z,45.3192
2023-05-14T11:39:29.257Z,45.3150
2023-05-14T11:40:31.002Z,45.2740
2023-05-14T11:41:32.705Z,45.2188
2023-05-14T11:42:34.448Z,45.2167
2023-05-14T11:43:36.166Z,45.2362
2023-05-14T11:44:37.921Z,45.2344
2023-05-14T11:45:39.693Z,45.2751
2023-05-14T11:46:41.413Z,45.2766
2023-05-14T11:47:43.116Z,45.2479
2023-05-14T11:48:44.809Z,45.1865
2023-05-14T11:49:46.556Z,45.1553
2023-05-14T11:50:48.284Z,45.1476
2023-05-14T11:51:50.013Z,45.1613
2023-05-14T11:52:51.723Z,45.1538
2023-05-14T11:53:53.445Z,45.1329
2023-05-14T11:54:55.193Z,45.1238
2023-05-14T11:55:56.923Z,45.1284
2023-05-14T11:56:58.625Z,45.0927
2023-05-14T11:58:00.365Z,45.0552
2023-05-14T11:59:02.091Z,44.9908
2023-05-14T12:00:03.820Z,44.9448
2023-05-14T12:01:05.582Z,44.9191
2023-05-14T12:02:07.337Z,44.8974
2023-05-14T12:03:09.065Z,44.8851
2023-05-14T12:04:10.843Z,44.9081
2023-05-14T12:05:12.570Z,44.8954
2023-05-14T12:06:14.213Z,44.8729
2023-05-14T12:07:15.952Z,44.8498
2023-05-14T12:08:17.660Z,44.8441
2023-05-14T12:09:19.380Z,44.8130
2023-05-14T12:10:21.121Z,44.8209
2023-05-14T12:11:22.863Z,44.8261
2023-05-14T12:12:24.600Z,44.8042
2023-05-14T12:13:26.325Z,44.7485
2023-05-14T12:14:28.037Z,44.6980
2023-05-14T12:15:29.775Z,44.6049
2023-05-14T12:16:31.588Z,44.4916
2023-05-14T12:17:33.261Z,44.4056
2023-05-14T12:18:35.060Z,44.2925
2023-05-14T12:19:36.697Z,44.2144
2023-05-14T12:20:38.430Z,44.1369
2023-05-14T12:21:40.165Z,44.0650
2023-05-14T12:22:41.864Z,44.0378
2023-05-14T12:23:43.605Z,44.0179
2023-05-14T12:24:45.347Z,43.9959
2023-05-14T12:25:47.073Z,43.9568
2023-05-14T12:26:48.814Z,43.9688
2023-05-14T12:27:50.515Z,44.0093
2023-05-14T12:28:52.256Z,44.0461
2023-05-14T12:29:53.997Z,44.0780
2023-05-14T12:30:55.747Z,44.1523
2023-05-14T12:31:57.546Z,44.2010
2023-05-14T12:32:59.250Z,44.2324